x

South Santa Rosa Is. Ca (46069) Wave Buoy

4:50am - Tue 6th Dec 2016 All times are PST. -8 hours from GMT.

  • Sig Wave height 8.9ft
  • Swell Direction
  • Peak Period 15s
  • Average Period 7s
  • Wind
    20mph, 25mph gusts
  • Sea Temp 58°f
  • 空気 Temp 56°f
  • Sea Pressure 1014.6mb
  • South Santa Rosa Is. Ca
  • South Santa Rosa Is. Ca

More Historic Weather Station data

Upgrade to MSW Pro to gain access to the past 30 days of data for over 8000 Wavebouys and Weather Stations around the globe.

Join Pro

Comparision Forecast

View Surf forecast
   
Tue 12/06 4:50am 9ft 15s 7s 20 25 mph 1014.6mb 58f 56f
3:50am 9ft 15s 7s 22 29 mph 1014.4mb 58f 56f
2:50am 9.5ft 14s 7s 22 27 mph 1014.5mb 58f 56f
1:50am 9.5ft 14s 7s 25 29 mph 1014.4mb 58f 56f
12:50am 10ft 14s 7s 25 29 mph 1014.5mb 58f 56f
Mon 12/05 11:50pm 10ft 14s 7s 22 25 mph 1014.6mb 58f 56f
10:50pm 10ft 15s 7s 22 27 mph 1014.2mb 58f 56f
9:50pm 10ft 14s 7s 25 29 mph 1014.3mb 58f 56f
8:50pm 10.5ft 8s 7s 25 29 mph 1014mb 58f 56f
7:50pm 11ft 8s 7s 29 36 mph 1013.4mb 58f 56f
6:50pm 10.5ft 8s 7s 27 31 mph 1013.6mb 58f 56f
5:50pm 11ft 14s 7s 27 34 mph 1013.3mb 58f 56f
4:50pm 11ft 14s 7s 27 34 mph 1013.4mb 58f 56f
3:50pm 10ft 15s 7s 29 36 mph 1013.8mb 58f 56f
2:50pm 10ft 8s 7s 27 31 mph 1013.3mb 58f 56f
1:50pm 10ft 14s 7s 22 29 mph 1013.5mb 58f 57f
12:50pm 10ft 15s 7s 25 31 mph 1013.8mb 58f 57f
11:50am 10.5ft 14s 7s 22 29 mph 1014.6mb 58f 57f
10:50am 11ft 14s 7s 22 27 mph 1015.3mb 58f 57f
9:50am 10.5ft 15s 7s 27 31 mph 1015.3mb 58f 57f
8:50am 11ft 14s 7s 29 36 mph 1014.4mb 58f 57f
7:50am 12ft 14s 8s 29 36 mph 1013.8mb 59f 57f
6:50am 11ft 15s 7s 27 34 mph 1014.1mb 59f 57f
5:50am 10ft 9s 7s 31 36 mph 1013.5mb 59f 57f
4:50am 12ft 15s 8s 31 38 mph 1013.3mb 60f 57f
3:50am 12ft 16s 8s 29 36 mph 1013.6mb 60f 57f
2:50am 13ft 15s 8s 31 36 mph 1014.1mb 59f 57f
1:50am 10ft 15s 7s 34 40 mph 1014.2mb 59f 58f
12:50am 11ft 16s 7s 29 38 mph 1014.4mb 59f 58f
Sun 12/04 11:50pm 11ft 16s 7s 29 36 mph 1014.8mb 59f 58f
10:50pm 10.5ft 14s 7s 27 36 mph 1015.1mb 59f 58f
9:50pm 12ft 15s 8s 27 34 mph 1015.4mb 59f 58f
8:50pm 12ft 16s 8s 27 34 mph 1015.5mb 59f 58f
7:50pm 11.5ft 16s 8s 27 31 mph 1015.4mb 59f 58f
6:50pm 11ft 16s 9s 27 31 mph 1015.4mb 60f 58f
5:50pm 11ft 16s 9s 20 27 mph 1015.7mb 60f 58f
4:50pm 11ft 16s 9s 25 29 mph 1015.1mb 60f 58f
3:50pm 12ft 16s 9s 20 27 mph 1015.9mb 60f 58f
2:50pm 11ft 16s 9s 25 27 mph 1015.8mb 59f 58f
1:50pm 11ft 16s 9s 20 22 mph 1016mb 59f 58f
12:50pm 11ft 16s 9s 22 29 mph 1016.7mb 59f 58f
11:50am 11.5ft 16s 9s 20 25 mph 1017.6mb 59f 59f
10:50am 9ft 16s 8s 20 25 mph 1018.3mb 59f 58f
8:50am 11ft 17s 9s 18 22 mph 1018.4mb 59f 58f
7:50am 11.5ft 17s 9s 22 27 mph 1018.2mb 59f 58f
6:50am 9ft 17s 8s 18 22 mph 1018.1mb 59f 58f
5:50am 10ft 17s 9s 18 22 mph 1017.6mb 59f 58f
4:50am 10ft 17s 9s 16 20 mph 1017.6mb 59f 58f
3:50am 10ft 17s 8s 16 18 mph 1017.5mb 59f 58f
2:50am 9ft 17s 8s 20 25 mph 1017.6mb 58f 58f
1:50am 10ft 19s 8s 18 22 mph 1017.6mb 58f 58f
12:50am 9ft 19s 8s 20 25 mph 1018.1mb 58f 58f
Sat 12/03 11:50pm 10ft 19s 9s 22 27 mph 1018.2mb 58f 58f
10:50pm 9ft 19s 8s 20 25 mph 1018.2mb 58f 58f
9:50pm 10ft 19s 9s 16 18 mph 1018.8mb 58f 58f
8:50pm 9ft 19s 8s 16 20 mph 1018.9mb 59f 58f
7:50pm 9.5ft 19s 9s 18 20 mph 1018.5mb 59f 58f
6:50pm 8ft 19s 8s 16 20 mph 1018.9mb 58f 58f
5:50pm 8ft 19s 8s 16 20 mph 1018.9mb 58f 58f
3:50pm 7.5ft 19s 8s 13 18 mph 1018.9mb 59f 58f
2:50pm 7.5ft 19s 8s 16 18 mph 1019.3mb 59f 58f
1:50pm 8ft 19s 8s 13 18 mph 1019.2mb 58f 57f
12:50pm 8ft 21s 8s 9 11 mph 1019.8mb 58f 56f
11:50am 8ft 21s 8s 11 16 mph 1020.4mb 58f 56f
10:50am 7.5ft 11s 7s 11 13 mph 1021.4mb 58f 56f
9:50am 8ft 11s 7s 16 18 mph 1021.7mb 58f 56f
8:50am 9ft 9s 8s 18 20 mph 1021.2mb 58f 56f
7:50am 8ft 10s 8s 9 11 mph 1021.2mb 58f 56f
6:50am 8ft 11s 8s 9 11 mph 1021mb 58f 56f
5:50am 8ft 13s 8s 9 11 mph 1020.7mb 58f 56f
4:50am 8ft 12s 8s 11 13 mph 1020.3mb 58f 56f
3:50am 7.5ft 12s 8s 11 13 mph 1020.2mb 58f 57f
2:50am 7ft 12s 8s 9 11 mph 1020.2mb 58f 57f
1:50am 8ft 12s 8s 7 9 mph 1020.4mb 58f 57f
12:50am 8.5ft 10s 8s 7 9 mph 1020.5mb 58f 57f
Fri 12/02 11:50pm 8ft 10s 8s 4 7 mph 1020.4mb 58f 56f
10:50pm 8ft 13s 8s 4 7 mph 1020.5mb 58f 57f
9:50pm 9ft 12s 8s 7 9 mph 1020.1mb 58f 58f
8:50pm 9ft 12s 8s 9 11 mph 1019.4mb 58f 58f
7:50pm 10ft 12s 8s 11 13 mph 1019.4mb 58f 58f
6:50pm 9.5ft 13s 8s 9 11 mph 1019.3mb 58f 58f
5:50pm 9.5ft 13s 8s 16 18 mph 1018.6mb 58f 57f
4:50pm 9ft 13s 8s 18 20 mph 1018.3mb 58f 57f
3:50pm 10ft 11s 8s 18 22 mph 1017.8mb 58f 57f
2:50pm 9.5ft 13s 9s 9 13 mph 1017.7mb 58f 57f